sensor_id;sensor_type;location;lat;lon;timestamp;P1;durP1;ratioP1;P2;durP2;ratioP2
56997;SDS011;42890;44.244;22.530;2023-07-24T00:00:25;12.27;;;11.07;;
56997;SDS011;42890;44.244;22.530;2023-07-24T00:02:51;13.35;;;11.65;;
56997;SDS011;42890;44.244;22.530;2023-07-24T00:05:18;11.95;;;10.50;;
56997;SDS011;42890;44.244;22.530;2023-07-24T00:07:45;12.68;;;10.93;;
56997;SDS011;42890;44.244;22.530;2023-07-24T00:10:11;13.43;;;10.73;;
56997;SDS011;42890;44.244;22.530;2023-07-24T00:12:37;15.05;;;10.98;;
56997;SDS011;42890;44.244;22.530;2023-07-24T00:15:03;14.65;;;11.35;;
56997;SDS011;42890;44.244;22.530;2023-07-24T00:17:29;16.52;;;11.85;;
56997;SDS011;42890;44.244;22.530;2023-07-24T00:19:56;13.35;;;11.77;;
56997;SDS011;42890;44.244;22.530;2023-07-24T00:22:22;14.23;;;11.32;;
56997;SDS011;42890;44.244;22.530;2023-07-24T00:24:48;12.75;;;11.05;;
56997;SDS011;42890;44.244;22.530;2023-07-24T00:27:14;20.58;;;11.63;;
56997;SDS011;42890;44.244;22.530;2023-07-24T00:29:40;13.25;;;11.85;;
56997;SDS011;42890;44.244;22.530;2023-07-24T00:32:06;14.23;;;11.82;;
56997;SDS011;42890;44.244;22.530;2023-07-24T00:34:32;18.15;;;11.20;;
56997;SDS011;42890;44.244;22.530;2023-07-24T00:36:58;11.88;;;10.68;;
56997;SDS011;42890;44.244;22.530;2023-07-24T00:39:25;13.35;;;11.18;;
56997;SDS011;42890;44.244;22.530;2023-07-24T00:41:53;13.00;;;11.20;;
56997;SDS011;42890;44.244;22.530;2023-07-24T00:44:19;13.48;;;11.38;;
56997;SDS011;42890;44.244;22.530;2023-07-24T00:46:45;15.50;;;12.02;;
56997;SDS011;42890;44.244;22.530;2023-07-24T00:49:12;17.00;;;12.63;;
56997;SDS011;42890;44.244;22.530;2023-07-24T00:51:38;16.58;;;11.00;;
56997;SDS011;42890;44.244;22.530;2023-07-24T00:54:05;14.77;;;11.15;;
56997;SDS011;42890;44.244;22.530;2023-07-24T00:56:31;12.43;;;10.70;;
56997;SDS011;42890;44.244;22.530;2023-07-24T00:58:59;14.98;;;10.38;;
56997;SDS011;42890;44.244;22.530;2023-07-24T01:01:25;12.07;;;10.88;;
56997;SDS011;42890;44.244;22.530;2023-07-24T01:03:51;11.75;;;10.25;;
56997;SDS011;42890;44.244;22.530;2023-07-24T01:06:18;18.00;;;10.60;;
56997;SDS011;42890;44.244;22.530;2023-07-24T01:08:44;11.23;;;10.13;;
56997;SDS011;42890;44.244;22.530;2023-07-24T01:13:36;11.82;;;10.18;;
56997;SDS011;42890;44.244;22.530;2023-07-24T01:16:09;12.93;;;10.10;;
56997;SDS011;42890;44.244;22.530;2023-07-24T01:18:36;18.23;;;10.95;;
56997;SDS011;42890;44.244;22.530;2023-07-24T01:21:02;13.85;;;10.73;;
56997;SDS011;42890;44.244;22.530;2023-07-24T01:26:02;12.68;;;10.88;;
56997;SDS011;42890;44.244;22.530;2023-07-24T01:28:29;12.68;;;10.32;;
56997;SDS011;42890;44.244;22.530;2023-07-24T01:30:55;11.80;;;10.65;;
56997;SDS011;42890;44.244;22.530;2023-07-24T01:33:22;10.82;;;9.50;;
56997;SDS011;42890;44.244;22.530;2023-07-24T01:35:50;10.93;;;9.82;;
56997;SDS011;42890;44.244;22.530;2023-07-24T01:38:18;13.95;;;10.77;;
56997;SDS011;42890;44.244;22.530;2023-07-24T01:40:45;12.68;;;11.38;;
56997;SDS011;42890;44.244;22.530;2023-07-24T01:43:11;10.82;;;9.88;;
56997;SDS011;42890;44.244;22.530;2023-07-24T01:45:37;14.90;;;9.88;;
56997;SDS011;42890;44.244;22.530;2023-07-24T01:48:04;21.08;;;10.27;;
56997;SDS011;42890;44.244;22.530;2023-07-24T01:50:30;11.63;;;10.10;;
56997;SDS011;42890;44.244;22.530;2023-07-24T01:52:56;9.95;;;8.65;;
56997;SDS011;42890;44.244;22.530;2023-07-24T01:55:22;12.32;;;9.15;;
56997;SDS011;42890;44.244;22.530;2023-07-24T01:57:48;13.68;;;9.82;;
56997;SDS011;42890;44.244;22.530;2023-07-24T02:00:15;11.98;;;9.60;;
56997;SDS011;42890;44.244;22.530;2023-07-24T02:02:41;11.00;;;9.57;;
56997;SDS011;42890;44.244;22.530;2023-07-24T02:05:07;12.70;;;9.63;;
56997;SDS011;42890;44.244;22.530;2023-07-24T02:07:33;10.00;;;9.10;;
56997;SDS011;42890;44.244;22.530;2023-07-24T02:09:59;13.88;;;10.07;;
56997;SDS011;42890;44.244;22.530;2023-07-24T02:12:25;11.57;;;10.38;;
56997;SDS011;42890;44.244;22.530;2023-07-24T02:14:51;11.35;;;10.25;;
56997;SDS011;42890;44.244;22.530;2023-07-24T02:17:18;11.10;;;9.57;;
56997;SDS011;42890;44.244;22.530;2023-07-24T02:19:44;18.58;;;10.20;;
56997;SDS011;42890;44.244;22.530;2023-07-24T02:22:10;11.52;;;9.50;;
56997;SDS011;42890;44.244;22.530;2023-07-24T02:24:36;13.02;;;9.05;;
56997;SDS011;42890;44.244;22.530;2023-07-24T02:27:04;10.85;;;8.93;;
56997;SDS011;42890;44.244;22.530;2023-07-24T02:29:30;19.15;;;10.10;;
56997;SDS011;42890;44.244;22.530;2023-07-24T02:31:57;11.20;;;9.93;;
56997;SDS011;42890;44.244;22.530;2023-07-24T02:34:23;14.57;;;9.27;;
56997;SDS011;42890;44.244;22.530;2023-07-24T02:36:54;10.55;;;9.43;;
56997;SDS011;42890;44.244;22.530;2023-07-24T02:39:20;10.77;;;9.05;;
56997;SDS011;42890;44.244;22.530;2023-07-24T02:41:47;12.48;;;9.68;;
56997;SDS011;42890;44.244;22.530;2023-07-24T02:44:14;12.13;;;10.30;;
56997;SDS011;42890;44.244;22.530;2023-07-24T02:46:40;10.75;;;9.75;;
56997;SDS011;42890;44.244;22.530;2023-07-24T02:49:06;13.50;;;9.73;;
56997;SDS011;42890;44.244;22.530;2023-07-24T02:51:33;12.10;;;10.55;;
56997;SDS011;42890;44.244;22.530;2023-07-24T02:53:59;10.88;;;9.88;;
56997;SDS011;42890;44.244;22.530;2023-07-24T02:56:25;10.82;;;9.43;;
56997;SDS011;42890;44.244;22.530;2023-07-24T02:58:51;9.82;;;8.93;;
56997;SDS011;42890;44.244;22.530;2023-07-24T03:01:17;11.15;;;9.70;;
56997;SDS011;42890;44.244;22.530;2023-07-24T03:03:43;16.98;;;10.48;;
56997;SDS011;42890;44.244;22.530;2023-07-24T03:06:10;10.98;;;10.00;;
56997;SDS011;42890;44.244;22.530;2023-07-24T03:08:36;13.00;;;10.18;;
56997;SDS011;42890;44.244;22.530;2023-07-24T03:11:04;11.85;;;10.50;;
56997;SDS011;42890;44.244;22.530;2023-07-24T03:13:30;12.10;;;10.45;;
56997;SDS011;42890;44.244;22.530;2023-07-24T03:15:57;15.23;;;10.75;;
56997;SDS011;42890;44.244;22.530;2023-07-24T03:18:23;11.68;;;10.57;;
56997;SDS011;42890;44.244;22.530;2023-07-24T03:20:50;14.05;;;10.77;;
56997;SDS011;42890;44.244;22.530;2023-07-24T03:23:16;10.45;;;9.43;;
56997;SDS011;42890;44.244;22.530;2023-07-24T03:25:42;11.93;;;10.65;;
56997;SDS011;42890;44.244;22.530;2023-07-24T03:28:08;16.27;;;10.00;;
56997;SDS011;42890;44.244;22.530;2023-07-24T03:30:34;11.13;;;9.95;;
56997;SDS011;42890;44.244;22.530;2023-07-24T03:33:01;11.82;;;10.63;;
56997;SDS011;42890;44.244;22.530;2023-07-24T03:35:27;11.50;;;10.10;;
56997;SDS011;42890;44.244;22.530;2023-07-24T03:37:53;11.95;;;10.05;;
56997;SDS011;42890;44.244;22.530;2023-07-24T03:40:19;12.80;;;10.30;;
56997;SDS011;42890;44.244;22.530;2023-07-24T03:42:45;16.15;;;10.18;;
56997;SDS011;42890;44.244;22.530;2023-07-24T03:45:11;12.65;;;10.23;;
56997;SDS011;42890;44.244;22.530;2023-07-24T03:47:37;11.02;;;9.95;;
56997;SDS011;42890;44.244;22.530;2023-07-24T03:50:04;12.80;;;9.98;;
56997;SDS011;42890;44.244;22.530;2023-07-24T03:52:30;10.32;;;9.32;;
56997;SDS011;42890;44.244;22.530;2023-07-24T03:54:56;10.40;;;9.23;;
56997;SDS011;42890;44.244;22.530;2023-07-24T03:57:22;12.60;;;11.30;;
56997;SDS011;42890;44.244;22.530;2023-07-24T03:59:48;12.20;;;11.00;;
56997;SDS011;42890;44.244;22.530;2023-07-24T04:02:14;11.85;;;10.43;;
56997;SDS011;42890;44.244;22.530;2023-07-24T04:04:41;11.18;;;10.00;;
56997;SDS011;42890;44.244;22.530;2023-07-24T04:07:07;12.02;;;10.70;;
56997;SDS011;42890;44.244;22.530;2023-07-24T04:09:33;14.65;;;11.60;;
56997;SDS011;42890;44.244;22.530;2023-07-24T04:11:59;14.32;;;11.77;;
56997;SDS011;42890;44.244;22.530;2023-07-24T04:14:25;12.98;;;11.77;;
56997;SDS011;42890;44.244;22.530;2023-07-24T04:16:51;15.90;;;14.38;;
56997;SDS011;42890;44.244;22.530;2023-07-24T04:19:17;14.18;;;12.65;;
56997;SDS011;42890;44.244;22.530;2023-07-24T04:21:43;13.32;;;12.00;;
56997;SDS011;42890;44.244;22.530;2023-07-24T04:24:10;12.90;;;11.48;;
56997;SDS011;42890;44.244;22.530;2023-07-24T04:26:36;12.40;;;11.30;;
56997;SDS011;42890;44.244;22.530;2023-07-24T04:29:02;12.43;;;11.23;;
56997;SDS011;42890;44.244;22.530;2023-07-24T04:31:28;11.90;;;10.80;;
56997;SDS011;42890;44.244;22.530;2023-07-24T04:33:54;12.63;;;11.13;;
56997;SDS011;42890;44.244;22.530;2023-07-24T04:36:20;14.63;;;10.90;;
56997;SDS011;42890;44.244;22.530;2023-07-24T04:38:46;16.45;;;11.10;;
56997;SDS011;42890;44.244;22.530;2023-07-24T04:41:13;12.70;;;10.95;;
56997;SDS011;42890;44.244;22.530;2023-07-24T04:43:39;12.45;;;11.23;;
56997;SDS011;42890;44.244;22.530;2023-07-24T04:46:05;12.38;;;9.82;;
56997;SDS011;42890;44.244;22.530;2023-07-24T04:48:31;13.15;;;10.50;;
56997;SDS011;42890;44.244;22.530;2023-07-24T04:50:57;14.13;;;10.70;;
56997;SDS011;42890;44.244;22.530;2023-07-24T04:53:23;16.08;;;10.48;;
56997;SDS011;42890;44.244;22.530;2023-07-24T04:55:49;11.98;;;10.63;;
56997;SDS011;42890;44.244;22.530;2023-07-24T04:58:15;12.85;;;11.50;;
56997;SDS011;42890;44.244;22.530;2023-07-24T05:00:42;12.48;;;11.18;;
56997;SDS011;42890;44.244;22.530;2023-07-24T05:03:08;11.68;;;10.48;;
56997;SDS011;42890;44.244;22.530;2023-07-24T05:05:39;12.70;;;10.93;;
56997;SDS011;42890;44.244;22.530;2023-07-24T05:08:05;12.20;;;10.85;;
56997;SDS011;42890;44.244;22.530;2023-07-24T05:10:35;14.80;;;10.52;;
56997;SDS011;42890;44.244;22.530;2023-07-24T05:13:01;10.80;;;9.80;;
56997;SDS011;42890;44.244;22.530;2023-07-24T05:15:27;12.27;;;10.35;;
56997;SDS011;42890;44.244;22.530;2023-07-24T05:17:53;12.18;;;10.95;;
56997;SDS011;42890;44.244;22.530;2023-07-24T05:20:19;12.90;;;10.40;;
56997;SDS011;42890;44.244;22.530;2023-07-24T05:22:46;11.95;;;10.77;;
56997;SDS011;42890;44.244;22.530;2023-07-24T05:25:12;11.70;;;10.70;;
56997;SDS011;42890;44.244;22.530;2023-07-24T05:27:38;11.15;;;10.05;;
56997;SDS011;42890;44.244;22.530;2023-07-24T05:30:05;10.45;;;9.45;;
56997;SDS011;42890;44.244;22.530;2023-07-24T05:32:31;11.63;;;9.45;;
56997;SDS011;42890;44.244;22.530;2023-07-24T05:34:58;10.38;;;9.48;;
56997;SDS011;42890;44.244;22.530;2023-07-24T05:37:24;10.90;;;9.88;;
56997;SDS011;42890;44.244;22.530;2023-07-24T05:39:50;10.88;;;9.90;;
56997;SDS011;42890;44.244;22.530;2023-07-24T05:42:16;15.00;;;10.32;;
56997;SDS011;42890;44.244;22.530;2023-07-24T05:44:42;10.20;;;9.40;;
56997;SDS011;42890;44.244;22.530;2023-07-24T05:47:08;10.95;;;9.95;;
56997;SDS011;42890;44.244;22.530;2023-07-24T05:49:34;10.90;;;9.98;;
56997;SDS011;42890;44.244;22.530;2023-07-24T05:52:00;11.70;;;10.35;;
56997;SDS011;42890;44.244;22.530;2023-07-24T05:54:27;9.93;;;9.07;;
56997;SDS011;42890;44.244;22.530;2023-07-24T05:56:53;10.25;;;8.40;;
56997;SDS011;42890;44.244;22.530;2023-07-24T05:59:19;9.25;;;7.45;;
56997;SDS011;42890;44.244;22.530;2023-07-24T06:01:45;10.60;;;7.25;;
56997;SDS011;42890;44.244;22.530;2023-07-24T06:04:11;8.88;;;7.97;;
56997;SDS011;42890;44.244;22.530;2023-07-24T06:06:37;7.88;;;7.07;;
56997;SDS011;42890;44.244;22.530;2023-07-24T06:09:03;8.80;;;7.30;;
56997;SDS011;42890;44.244;22.530;2023-07-24T06:11:29;7.85;;;7.10;;
56997;SDS011;42890;44.244;22.530;2023-07-24T06:13:55;10.10;;;7.13;;
56997;SDS011;42890;44.244;22.530;2023-07-24T06:16:22;8.20;;;7.22;;
56997;SDS011;42890;44.244;22.530;2023-07-24T06:18:48;7.82;;;7.13;;
56997;SDS011;42890;44.244;22.530;2023-07-24T06:21:14;9.02;;;6.82;;
56997;SDS011;42890;44.244;22.530;2023-07-24T06:23:40;8.77;;;7.60;;
56997;SDS011;42890;44.244;22.530;2023-07-24T06:26:06;9.82;;;7.25;;
56997;SDS011;42890;44.244;22.530;2023-07-24T06:28:32;14.75;;;9.00;;
56997;SDS011;42890;44.244;22.530;2023-07-24T06:30:59;11.77;;;8.23;;
56997;SDS011;42890;44.244;22.530;2023-07-24T06:33:25;8.90;;;8.05;;
56997;SDS011;42890;44.244;22.530;2023-07-24T06:35:51;8.88;;;7.78;;
56997;SDS011;42890;44.244;22.530;2023-07-24T06:38:17;9.57;;;8.13;;
56997;SDS011;42890;44.244;22.530;2023-07-24T06:40:46;9.18;;;8.07;;
56997;SDS011;42890;44.244;22.530;2023-07-24T06:43:12;10.52;;;7.90;;
56997;SDS011;42890;44.244;22.530;2023-07-24T06:45:38;11.10;;;8.50;;
56997;SDS011;42890;44.244;22.530;2023-07-24T06:48:04;10.00;;;7.70;;
56997;SDS011;42890;44.244;22.530;2023-07-24T06:50:30;8.18;;;7.45;;
56997;SDS011;42890;44.244;22.530;2023-07-24T06:52:56;9.82;;;8.10;;
56997;SDS011;42890;44.244;22.530;2023-07-24T06:55:23;10.68;;;7.80;;
56997;SDS011;42890;44.244;22.530;2023-07-24T06:57:49;10.77;;;8.32;;
56997;SDS011;42890;44.244;22.530;2023-07-24T07:00:15;10.50;;;8.63;;
56997;SDS011;42890;44.244;22.530;2023-07-24T07:02:41;8.73;;;7.85;;
56997;SDS011;42890;44.244;22.530;2023-07-24T07:05:07;8.43;;;7.63;;
56997;SDS011;42890;44.244;22.530;2023-07-24T07:07:33;10.45;;;8.25;;
56997;SDS011;42890;44.244;22.530;2023-07-24T07:09:59;8.98;;;7.82;;
56997;SDS011;42890;44.244;22.530;2023-07-24T07:12:26;10.07;;;7.65;;
56997;SDS011;42890;44.244;22.530;2023-07-24T07:14:52;9.93;;;8.18;;
56997;SDS011;42890;44.244;22.530;2023-07-24T07:17:18;10.82;;;7.88;;
56997;SDS011;42890;44.244;22.530;2023-07-24T07:19:44;9.13;;;8.23;;
56997;SDS011;42890;44.244;22.530;2023-07-24T07:22:10;11.23;;;8.40;;
56997;SDS011;42890;44.244;22.530;2023-07-24T07:24:36;25.05;;;8.82;;
56997;SDS011;42890;44.244;22.530;2023-07-24T07:27:02;12.57;;;8.55;;
56997;SDS011;42890;44.244;22.530;2023-07-24T07:29:28;8.93;;;8.13;;
56997;SDS011;42890;44.244;22.530;2023-07-24T07:31:56;11.63;;;8.15;;
56997;SDS011;42890;44.244;22.530;2023-07-24T07:34:22;10.60;;;7.93;;
56997;SDS011;42890;44.244;22.530;2023-07-24T07:36:48;10.13;;;8.65;;
56997;SDS011;42890;44.244;22.530;2023-07-24T07:39:14;10.55;;;8.10;;
56997;SDS011;42890;44.244;22.530;2023-07-24T07:41:41;10.02;;;7.85;;
56997;SDS011;42890;44.244;22.530;2023-07-24T07:44:07;12.23;;;7.53;;
56997;SDS011;42890;44.244;22.530;2023-07-24T07:46:33;8.65;;;7.25;;
56997;SDS011;42890;44.244;22.530;2023-07-24T07:48:59;8.65;;;7.53;;
56997;SDS011;42890;44.244;22.530;2023-07-24T07:51:25;8.93;;;7.82;;
56997;SDS011;42890;44.244;22.530;2023-07-24T07:53:52;8.48;;;7.68;;
56997;SDS011;42890;44.244;22.530;2023-07-24T07:56:18;9.02;;;8.13;;
56997;SDS011;42890;44.244;22.530;2023-07-24T07:58:44;8.15;;;7.45;;
56997;SDS011;42890;44.244;22.530;2023-07-24T08:01:10;8.90;;;8.05;;
56997;SDS011;42890;44.244;22.530;2023-07-24T08:03:36;9.07;;;8.18;;
56997;SDS011;42890;44.244;22.530;2023-07-24T08:06:02;9.02;;;8.13;;
56997;SDS011;42890;44.244;22.530;2023-07-24T08:08:29;8.75;;;7.80;;
56997;SDS011;42890;44.244;22.530;2023-07-24T08:10:55;10.32;;;7.88;;
56997;SDS011;42890;44.244;22.530;2023-07-24T08:13:21;8.95;;;8.05;;
56997;SDS011;42890;44.244;22.530;2023-07-24T08:15:47;8.63;;;7.80;;
56997;SDS011;42890;44.244;22.530;2023-07-24T08:18:13;8.23;;;7.43;;
56997;SDS011;42890;44.244;22.530;2023-07-24T08:20:39;8.20;;;7.50;;
56997;SDS011;42890;44.244;22.530;2023-07-24T08:23:06;9.20;;;7.90;;
56997;SDS011;42890;44.244;22.530;2023-07-24T08:25:32;8.50;;;7.68;;
56997;SDS011;42890;44.244;22.530;2023-07-24T08:27:58;10.32;;;7.85;;
56997;SDS011;42890;44.244;22.530;2023-07-24T08:30:24;9.95;;;8.77;;
56997;SDS011;42890;44.244;22.530;2023-07-24T08:32:50;8.48;;;7.68;;
56997;SDS011;42890;44.244;22.530;2023-07-24T08:35:18;9.57;;;7.95;;
56997;SDS011;42890;44.244;22.530;2023-07-24T08:37:44;8.93;;;7.72;;
56997;SDS011;42890;44.244;22.530;2023-07-24T08:40:10;10.65;;;8.02;;
56997;SDS011;42890;44.244;22.530;2023-07-24T08:42:40;14.15;;;8.48;;
56997;SDS011;42890;44.244;22.530;2023-07-24T08:45:11;9.57;;;8.43;;
56997;SDS011;42890;44.244;22.530;2023-07-24T08:47:40;8.80;;;7.90;;
56997;SDS011;42890;44.244;22.530;2023-07-24T08:50:07;8.90;;;8.10;;
56997;SDS011;42890;44.244;22.530;2023-07-24T08:52:36;9.35;;;8.10;;
56997;SDS011;42890;44.244;22.530;2023-07-24T08:55:02;8.50;;;7.72;;
56997;SDS011;42890;44.244;22.530;2023-07-24T08:57:29;9.90;;;8.43;;
56997;SDS011;42890;44.244;22.530;2023-07-24T08:59:56;9.68;;;8.73;;
56997;SDS011;42890;44.244;22.530;2023-07-24T09:02:23;9.77;;;8.73;;
56997;SDS011;42890;44.244;22.530;2023-07-24T09:04:49;12.32;;;8.52;;
56997;SDS011;42890;44.244;22.530;2023-07-24T09:07:15;8.48;;;7.68;;
56997;SDS011;42890;44.244;22.530;2023-07-24T09:09:42;8.05;;;7.35;;
56997;SDS011;42890;44.244;22.530;2023-07-24T09:12:08;8.23;;;7.45;;
56997;SDS011;42890;44.244;22.530;2023-07-24T09:14:34;10.45;;;7.55;;
56997;SDS011;42890;44.244;22.530;2023-07-24T09:17:08;7.90;;;7.20;;
56997;SDS011;42890;44.244;22.530;2023-07-24T09:19:34;8.02;;;7.32;;
56997;SDS011;42890;44.244;22.530;2023-07-24T09:22:10;8.35;;;7.30;;
56997;SDS011;42890;44.244;22.530;2023-07-24T09:24:37;7.18;;;6.55;;
56997;SDS011;42890;44.244;22.530;2023-07-24T09:27:06;8.75;;;7.88;;
56997;SDS011;42890;44.244;22.530;2023-07-24T09:29:33;9.70;;;8.05;;
56997;SDS011;42890;44.244;22.530;2023-07-24T09:32:00;10.10;;;6.95;;
56997;SDS011;42890;44.244;22.530;2023-07-24T09:34:26;7.75;;;7.05;;
56997;SDS011;42890;44.244;22.530;2023-07-24T09:36:52;7.47;;;6.70;;
56997;SDS011;42890;44.244;22.530;2023-07-24T09:39:23;10.77;;;7.07;;
56997;SDS011;42890;44.244;22.530;2023-07-24T09:41:49;9.73;;;7.82;;
56997;SDS011;42890;44.244;22.530;2023-07-24T09:44:15;7.63;;;6.93;;
56997;SDS011;42890;44.244;22.530;2023-07-24T09:46:42;7.95;;;7.13;;
56997;SDS011;42890;44.244;22.530;2023-07-24T09:49:09;7.95;;;7.07;;
56997;SDS011;42890;44.244;22.530;2023-07-24T09:51:35;7.78;;;7.07;;
56997;SDS011;42890;44.244;22.530;2023-07-24T09:54:14;11.30;;;7.53;;
56997;SDS011;42890;44.244;22.530;2023-07-24T09:56:41;8.00;;;7.28;;
56997;SDS011;42890;44.244;22.530;2023-07-24T09:59:08;9.13;;;7.22;;
56997;SDS011;42890;44.244;22.530;2023-07-24T10:01:35;7.30;;;6.60;;
56997;SDS011;42890;44.244;22.530;2023-07-24T10:04:03;8.27;;;7.22;;
56997;SDS011;42890;44.244;22.530;2023-07-24T10:06:30;8.32;;;7.53;;
56997;SDS011;42890;44.244;22.530;2023-07-24T10:08:56;8.15;;;7.45;;
56997;SDS011;42890;44.244;22.530;2023-07-24T10:11:23;7.80;;;7.10;;
56997;SDS011;42890;44.244;22.530;2023-07-24T10:13:49;7.70;;;7.00;;
56997;SDS011;42890;44.244;22.530;2023-07-24T10:16:16;8.77;;;7.88;;
56997;SDS011;42890;44.244;22.530;2023-07-24T10:18:46;8.48;;;7.68;;
56997;SDS011;42890;44.244;22.530;2023-07-24T10:21:12;8.25;;;7.50;;
56997;SDS011;42890;44.244;22.530;2023-07-24T10:23:42;10.52;;;7.60;;
56997;SDS011;42890;44.244;22.530;2023-07-24T10:26:09;7.90;;;7.10;;
56997;SDS011;42890;44.244;22.530;2023-07-24T10:28:36;8.95;;;7.45;;
56997;SDS011;42890;44.244;22.530;2023-07-24T10:31:08;9.15;;;7.97;;
56997;SDS011;42890;44.244;22.530;2023-07-24T10:33:43;8.43;;;7.53;;
56997;SDS011;42890;44.244;22.530;2023-07-24T10:36:10;9.73;;;7.75;;
56997;SDS011;42890;44.244;22.530;2023-07-24T10:38:41;7.93;;;7.25;;
56997;SDS011;42890;44.244;22.530;2023-07-24T10:41:08;9.00;;;8.10;;
56997;SDS011;42890;44.244;22.530;2023-07-24T10:43:45;8.38;;;7.57;;
56997;SDS011;42890;44.244;22.530;2023-07-24T10:46:12;8.25;;;7.45;;
56997;SDS011;42890;44.244;22.530;2023-07-24T10:48:43;8.35;;;7.65;;
56997;SDS011;42890;44.244;22.530;2023-07-24T10:51:10;8.38;;;7.57;;
56997;SDS011;42890;44.244;22.530;2023-07-24T10:53:40;10.38;;;7.55;;
56997;SDS011;42890;44.244;22.530;2023-07-24T10:56:07;10.90;;;7.47;;
56997;SDS011;42890;44.244;22.530;2023-07-24T10:58:33;8.13;;;7.20;;
56997;SDS011;42890;44.244;22.530;2023-07-24T11:01:03;9.43;;;7.32;;
56997;SDS011;42890;44.244;22.530;2023-07-24T11:03:30;8.35;;;7.57;;
56997;SDS011;42890;44.244;22.530;2023-07-24T11:05:56;8.05;;;6.65;;
56997;SDS011;42890;44.244;22.530;2023-07-24T11:08:23;8.48;;;7.68;;
56997;SDS011;42890;44.244;22.530;2023-07-24T11:10:53;8.43;;;7.57;;
56997;SDS011;42890;44.244;22.530;2023-07-24T11:13:20;8.73;;;7.45;;
56997;SDS011;42890;44.244;22.530;2023-07-24T11:15:47;9.23;;;8.25;;
56997;SDS011;42890;44.244;22.530;2023-07-24T11:18:14;15.48;;;8.50;;
56997;SDS011;42890;44.244;22.530;2023-07-24T11:20:44;8.20;;;7.47;;
56997;SDS011;42890;44.244;22.530;2023-07-24T11:23:11;8.40;;;7.60;;
56997;SDS011;42890;44.244;22.530;2023-07-24T11:25:38;8.82;;;8.02;;
56997;SDS011;42890;44.244;22.530;2023-07-24T11:28:05;9.40;;;8.13;;
56997;SDS011;42890;44.244;22.530;2023-07-24T11:30:31;11.70;;;8.38;;
56997;SDS011;42890;44.244;22.530;2023-07-24T11:32:59;10.25;;;7.68;;
56997;SDS011;42890;44.244;22.530;2023-07-24T11:35:26;8.77;;;7.97;;
56997;SDS011;42890;44.244;22.530;2023-07-24T11:37:52;8.55;;;7.65;;
56997;SDS011;42890;44.244;22.530;2023-07-24T11:40:18;8.55;;;7.85;;
56997;SDS011;42890;44.244;22.530;2023-07-24T11:42:46;9.38;;;7.47;;
56997;SDS011;42890;44.244;22.530;2023-07-24T11:45:12;8.77;;;7.97;;
56997;SDS011;42890;44.244;22.530;2023-07-24T11:47:45;8.38;;;7.72;;
56997;SDS011;42890;44.244;22.530;2023-07-24T11:50:12;8.52;;;7.75;;
56997;SDS011;42890;44.244;22.530;2023-07-24T11:52:43;9.88;;;8.57;;
56997;SDS011;42890;44.244;22.530;2023-07-24T11:55:10;10.52;;;8.77;;
56997;SDS011;42890;44.244;22.530;2023-07-24T11:57:36;11.23;;;8.55;;
56997;SDS011;42890;44.244;22.530;2023-07-24T12:00:03;10.45;;;7.95;;
56997;SDS011;42890;44.244;22.530;2023-07-24T12:02:29;9.60;;;8.05;;
56997;SDS011;42890;44.244;22.530;2023-07-24T12:04:55;10.32;;;8.30;;
56997;SDS011;42890;44.244;22.530;2023-07-24T12:07:32;12.38;;;11.13;;
56997;SDS011;42890;44.244;22.530;2023-07-24T12:10:03;11.73;;;10.60;;
56997;SDS011;42890;44.244;22.530;2023-07-24T12:12:45;15.95;;;12.43;;
56997;SDS011;42890;44.244;22.530;2023-07-24T12:15:12;13.95;;;12.50;;
56997;SDS011;42890;44.244;22.530;2023-07-24T12:17:39;15.98;;;12.55;;
56997;SDS011;42890;44.244;22.530;2023-07-24T12:20:05;14.38;;;12.93;;
56997;SDS011;42890;44.244;22.530;2023-07-24T12:22:33;14.70;;;13.25;;
56997;SDS011;42890;44.244;22.530;2023-07-24T12:25:00;14.68;;;13.15;;
56997;SDS011;42890;44.244;22.530;2023-07-24T12:27:26;15.15;;;13.77;;
56997;SDS011;42890;44.244;22.530;2023-07-24T12:29:52;15.40;;;13.93;;
56997;SDS011;42890;44.244;22.530;2023-07-24T12:32:18;14.93;;;13.43;;
56997;SDS011;42890;44.244;22.530;2023-07-24T12:34:48;17.80;;;12.82;;
56997;SDS011;42890;44.244;22.530;2023-07-24T12:37:14;15.43;;;13.93;;
56997;SDS011;42890;44.244;22.530;2023-07-24T12:39:41;13.90;;;12.60;;
56997;SDS011;42890;44.244;22.530;2023-07-24T12:42:07;13.82;;;12.43;;
56997;SDS011;42890;44.244;22.530;2023-07-24T12:44:33;19.67;;;14.02;;
56997;SDS011;42890;44.244;22.530;2023-07-24T12:46:59;15.95;;;14.45;;
56997;SDS011;42890;44.244;22.530;2023-07-24T12:49:25;14.07;;;12.77;;
56997;SDS011;42890;44.244;22.530;2023-07-24T12:51:51;14.88;;;13.45;;
56997;SDS011;42890;44.244;22.530;2023-07-24T12:54:17;14.07;;;12.95;;
56997;SDS011;42890;44.244;22.530;2023-07-24T12:56:45;13.68;;;12.55;;
56997;SDS011;42890;44.244;22.530;2023-07-24T12:59:12;14.48;;;13.02;;
56997;SDS011;42890;44.244;22.530;2023-07-24T13:01:39;16.17;;;14.57;;
56997;SDS011;42890;44.244;22.530;2023-07-24T13:04:05;15.45;;;14.05;;
56997;SDS011;42890;44.244;22.530;2023-07-24T13:06:31;16.30;;;13.70;;
56997;SDS011;42890;44.244;22.530;2023-07-24T13:08:57;15.05;;;13.50;;
56997;SDS011;42890;44.244;22.530;2023-07-24T13:11:23;14.93;;;13.55;;
56997;SDS011;42890;44.244;22.530;2023-07-24T13:13:50;17.13;;;14.98;;
56997;SDS011;42890;44.244;22.530;2023-07-24T13:16:16;15.88;;;14.48;;
56997;SDS011;42890;44.244;22.530;2023-07-24T13:18:42;15.63;;;14.10;;
56997;SDS011;42890;44.244;22.530;2023-07-24T13:21:09;15.20;;;13.75;;
56997;SDS011;42890;44.244;22.530;2023-07-24T13:23:35;15.23;;;13.82;;
56997;SDS011;42890;44.244;22.530;2023-07-24T13:26:01;14.98;;;13.63;;
56997;SDS011;42890;44.244;22.530;2023-07-24T13:28:27;16.45;;;14.85;;
56997;SDS011;42890;44.244;22.530;2023-07-24T13:30:55;16.70;;;15.20;;
56997;SDS011;42890;44.244;22.530;2023-07-24T13:33:21;15.93;;;14.43;;
56997;SDS011;42890;44.244;22.530;2023-07-24T13:35:48;18.65;;;14.70;;
56997;SDS011;42890;44.244;22.530;2023-07-24T13:38:16;15.73;;;14.18;;
56997;SDS011;42890;44.244;22.530;2023-07-24T13:40:42;16.65;;;13.95;;
56997;SDS011;42890;44.244;22.530;2023-07-24T13:43:08;16.02;;;14.52;;
56997;SDS011;42890;44.244;22.530;2023-07-24T13:45:34;15.07;;;13.55;;
56997;SDS011;42890;44.244;22.530;2023-07-24T13:48:00;17.35;;;15.60;;
56997;SDS011;42890;44.244;22.530;2023-07-24T13:50:27;16.05;;;14.45;;
56997;SDS011;42890;44.244;22.530;2023-07-24T13:52:53;17.35;;;15.63;;
56997;SDS011;42890;44.244;22.530;2023-07-24T13:55:19;16.38;;;14.77;;
56997;SDS011;42890;44.244;22.530;2023-07-24T13:57:45;17.40;;;15.57;;
56997;SDS011;42890;44.244;22.530;2023-07-24T14:00:12;16.65;;;15.15;;
56997;SDS011;42890;44.244;22.530;2023-07-24T14:02:38;17.67;;;15.43;;
56997;SDS011;42890;44.244;22.530;2023-07-24T14:05:04;17.00;;;15.40;;
56997;SDS011;42890;44.244;22.530;2023-07-24T14:07:30;17.20;;;15.63;;
56997;SDS011;42890;44.244;22.530;2023-07-24T14:09:57;18.50;;;16.15;;
56997;SDS011;42890;44.244;22.530;2023-07-24T14:12:23;18.50;;;16.77;;
56997;SDS011;42890;44.244;22.530;2023-07-24T14:14:49;19.45;;;17.50;;
56997;SDS011;42890;44.244;22.530;2023-07-24T14:17:15;18.15;;;16.45;;
56997;SDS011;42890;44.244;22.530;2023-07-24T14:19:41;18.23;;;16.48;;
56997;SDS011;42890;44.244;22.530;2023-07-24T14:22:07;18.70;;;16.85;;